Aeroporto :
LOGIN :

Iscrizione | Disclaimer

   EN    FR    IT 

 










Sommario :    VFR   VFR Marginale   IFR   IFR Intensivo   IFR Molto Intensivo
Visibilità : 
Base nubi : 
>= 8 km
>= 3000ft
5 / 8 km
1000 / 3000 ft
1500m / 5 km
500 / 1000 ft
800 / 1500m
200 / 500 ft
< 800m
< 200 ft
Simboli :   Temporali  Nebbia  Neve Forte  Precipitazioni Forti  Vento > 20 kt
SIGMETs :   Varie  Temporali  Ghiacco  Turbolenza  Onda orograficha  Ceneri Vulcaniche






- Altitudine del aeroporto : 3 ft
- Codice IATA : LWR


EHLW - Leuuwarden Air Base

ULTIMO METAR :
  • 200125Z AUTO 33015KT 290V010 9999 FEW015CB SCT044 BKN056 06/04 Q1015 BLU

METARs OBSOLETI :
  • 200055Z AUTO 34015G25KT 300V010 9999 FEW015CB SCT017 OVC035 07/04 Q1015 WHT
  • 200030Z AUTO 34018KT 290V010 9999 FEW015CB SCT028 OVC032 07/04 Q1015 BLU
  • 200025Z AUTO 34017KT 300V010 9999 FEW015CB BKN022 BKN028 07/04 Q1015 WHT
  • 200013Z AUTO 34014KT 300V010 9999 FEW015CB SCT029 BKN033 07/04 Q1015 BLU
  • 192355Z AUTO 34018KT 310V010 9999 FEW015CB BKN030 BKN037 06/03 Q1015 BLU
  • 192338Z AUTO 35019KT 310V010 9999 SCT015CB SCT022 BKN037 07/04 Q1015 WHT
  • 192325Z AUTO 35017KT 310V010 9999 FEW015CB BKN041 OVC047 07/04 Q1014 BLU
  • 192301Z AUTO 35017KT 310V020 9999 -UP FEW017 SCT032 OVC042 07/04 Q1014 BLU
  • 192255Z AUTO 35015KT 320V020 9999 FEW015CB OVC044 07/04 Q1014 BLU
  • 192232Z AUTO 35017KT 310V020 9999 FEW015CB SCT026 BKN036 07/04 Q1014 BLU
  • 192155Z AUTO 36012KT 340V040 9999 FEW015CB BKN040 OVC046 07/04 Q1014 BLU
  • 192134Z AUTO 34017KT 310V020 9999 FEW015CB SCT020 BKN023 07/04 Q1013 WHT
  • 192144Z AUTO 35019KT 310V020 9999 FEW015CB SCT029 BKN035 07/04 Q1013 BLU
  • 192103Z AUTO 34015KT 310V010 9999 FEW024 SCT051 07/04 Q1013 BLU
  • 192034Z AUTO 34014KT 310V010 9999 SCT021 SCT027 OVC050 07/04 Q1013 WHT
  • 192043Z AUTO 35014KT 310V010 9999 FEW021 SCT028 OVC049 07/04 Q1013 BLU

TAF TAF EHLW
Valido dal 20 a 01 ore il 20 a 13 ore UTC


200039Z 2001/2013 34012G22KT 9999 FEW020 SCT030
TEMPO 2001/2013 35015G27KT 4500 SHRA SCT015 SCT020CB BKN022



MetMap, La meteo Aeronautica in un colpo d'occhio ! - Copyright ORBIFLY Dicembre 2007 - Disclaimer

ORBIFLY MET'MAP TEAM :

Programmazione e sviluppo : Alexandra Zaïnal
Concezione : Baudouin d'Aumeries
Supporto tecnico e logistico : Manuel Goepfert
Aiuto : Marc-Olivier Méhu
Aiuto per la traduzione : Arnaldo La Scala




FONTI E CREDITI :

   NOAA